Time;durP1;ratioP1;P1;durP2;ratioP2;P2;SDS_P1;SDS_P2;PMS_P1;PMS_P2;Temp;Humidity;BMP_temperature;BMP_pressure;BME280_temperature;BME280_humidity;BME280_pressure;Samples;Min_cycle;Max_cycle;Signal;HPM_P1;HPM_P2
2022/03/24 00:02:05;;;;;;;84.40;29.90;;;5.90;99.90;;;;;;5014412;28;20050;-70
2022/03/24 00:04:31;;;;;;;79.35;30.65;;;5.90;99.90;;;;;;4998704;28;20521;-71
2022/03/24 00:06:57;;;;;;;86.57;32.45;;;5.90;99.90;;;;;;4981842;28;20085;-70
2022/03/24 00:09:22;;;;;;;81.25;30.05;;;5.80;99.90;;;;;;5014144;28;20049;-72
2022/03/24 00:11:48;;;;;;;87.50;31.25;;;5.80;99.90;;;;;;4997564;28;20045;-70
2022/03/24 00:14:16;;;;;;;84.05;31.23;;;5.70;99.90;;;;;;4997647;28;20050;-70
2022/03/24 00:16:43;;;;;;;80.70;30.15;;;5.70;99.90;;;;;;5015666;28;20181;-70
2022/03/24 00:19:09;;;;;;;74.13;28.30;;;5.70;99.90;;;;;;5015314;28;20077;-71
2022/03/24 00:21:36;;;;;;;75.17;28.17;;;5.60;99.90;;;;;;4997418;28;20116;-70
2022/03/24 00:24:03;;;;;;;77.28;29.33;;;5.60;99.90;;;;;;5014213;28;20482;-70
2022/03/24 00:26:29;;;;;;;76.07;29.58;;;5.50;99.90;;;;;;5013746;28;20454;-71
2022/03/24 00:28:55;;;;;;;77.20;29.77;;;5.60;99.90;;;;;;5013910;28;20038;-69
2022/03/24 00:31:20;;;;;;;78.05;30.15;;;5.50;99.90;;;;;;5013724;28;20049;-70
2022/03/24 00:33:46;;;;;;;80.25;29.73;;;5.50;99.90;;;;;;4965858;28;20116;-70
2022/03/24 00:36:14;;;;;;;77.35;29.88;;;5.50;99.90;;;;;;4997380;28;20041;-71
2022/03/24 00:38:40;;;;;;;74.93;29.60;;;5.50;99.90;;;;;;5014185;28;20049;-69
2022/03/24 00:41:06;;;;;;;86.97;30.10;;;5.50;99.90;;;;;;4997319;28;20068;-70
2022/03/24 00:43:32;;;;;;;82.07;30.90;;;5.50;99.90;;;;;;5013550;28;20046;-69
2022/03/24 00:45:59;;;;;;;84.38;30.33;;;5.50;99.90;;;;;;5014438;28;20378;-69
2022/03/24 00:48:25;;;;;;;80.53;29.92;;;5.50;99.90;;;;;;5013760;28;20129;-70
2022/03/24 00:50:52;;;;;;;78.18;29.83;;;5.50;99.90;;;;;;4996815;28;20065;-71
2022/03/24 00:53:18;;;;;;;85.82;30.45;;;5.40;99.90;;;;;;4996866;28;20045;-70
2022/03/24 00:55:44;;;;;;;78.15;29.92;;;5.40;99.90;;;;;;5013413;28;20056;-69
2022/03/24 00:58:10;;;;;;;80.90;29.73;;;5.40;99.90;;;;;;5014634;28;20116;-71
2022/03/24 01:00:38;;;;;;;83.03;30.15;;;5.30;99.90;;;;;;5014576;28;20054;-70
2022/03/24 01:03:06;;;;;;;91.20;30.50;;;5.30;99.90;;;;;;4997646;28;20080;-70
2022/03/24 01:05:37;;;;;;;85.28;30.10;;;5.30;99.90;;;;;;5015658;28;20068;-70
2022/03/24 01:08:10;;;;;;;87.53;30.63;;;5.20;99.90;;;;;;5015812;28;20050;-70
2022/03/24 01:10:36;;;;;;;88.80;31.33;;;5.10;99.90;;;;;;5015614;28;20077;-72
2022/03/24 01:13:03;;;;;;;88.45;30.67;;;5.10;99.90;;;;;;4997288;28;20152;-70
2022/03/24 01:15:30;;;;;;;82.53;30.60;;;5.10;99.90;;;;;;5012895;28;20049;-70
2022/03/24 01:17:59;;;;;;;84.38;31.27;;;5.00;99.90;;;;;;5013146;28;20103;-69
2022/03/24 01:20:26;;;;;;;84.25;30.52;;;5.00;99.90;;;;;;5014441;28;20504;-70
2022/03/24 01:22:52;;;;;;;93.38;31.70;;;4.90;99.90;;;;;;5012959;28;20050;-70
2022/03/24 01:25:18;;;;;;;87.68;32.70;;;4.80;99.90;;;;;;5014150;28;20057;-70
2022/03/24 01:27:44;;;;;;;88.05;32.03;;;4.80;99.90;;;;;;5013410;28;20168;-70
2022/03/24 01:30:11;;;;;;;93.00;32.45;;;4.80;99.90;;;;;;4980389;28;20050;-70
2022/03/24 01:32:37;;;;;;;88.27;31.13;;;4.70;99.90;;;;;;4996618;28;20054;-70
2022/03/24 01:35:07;;;;;;;87.28;30.80;;;4.70;99.90;;;;;;5014369;28;20344;-70
2022/03/24 01:37:36;;;;;;;96.60;32.97;;;4.70;99.90;;;;;;5012079;28;20567;-70
2022/03/24 01:40:04;;;;;;;92.25;33.10;;;4.70;99.90;;;;;;5012442;28;20042;-68
2022/03/24 01:42:34;;;;;;;95.40;31.50;;;4.60;99.90;;;;;;5012857;28;20057;-70
2022/03/24 01:45:00;;;;;;;85.60;30.45;;;4.60;99.90;;;;;;4995847;28;20538;-71
2022/03/24 01:47:25;;;;;;;87.65;31.88;;;4.50;99.90;;;;;;5013740;28;20140;-70
2022/03/24 01:49:53;;;;;;;82.45;30.88;;;4.50;99.90;;;;;;4963937;28;20046;-70
2022/03/24 01:52:19;;;;;;;88.93;31.67;;;4.50;99.90;;;;;;4995881;28;20199;-71
2022/03/24 01:54:51;;;;;;;85.85;31.20;;;4.50;99.90;;;;;;5013188;28;20141;-71
2022/03/24 01:57:19;;;;;;;90.50;31.30;;;4.50;99.90;;;;;;4997412;28;20061;-73
2022/03/24 01:59:45;;;;;;;91.93;31.10;;;4.40;99.90;;;;;;5013446;28;20073;-70
2022/03/24 02:02:11;;;;;;;96.63;31.73;;;4.50;99.90;;;;;;4995868;28;20490;-70
2022/03/24 02:04:38;;;;;;;86.85;30.67;;;4.50;99.90;;;;;;5012748;28;20045;-70
2022/03/24 02:07:05;;;;;;;100.07;30.67;;;4.40;99.90;;;;;;5012051;28;20054;-70
2022/03/24 02:09:35;;;;;;;92.25;31.33;;;4.50;99.90;;;;;;5013206;28;20297;-70
2022/03/24 02:12:08;;;;;;;83.93;31.35;;;4.50;99.90;;;;;;5011762;28;20517;-70
2022/03/24 02:14:34;;;;;;;95.13;32.42;;;4.40;99.90;;;;;;5011926;28;20046;-70
2022/03/24 02:17:00;;;;;;;91.78;30.13;;;4.40;99.90;;;;;;5011875;28;20121;-70
2022/03/24 02:19:28;;;;;;;90.63;31.33;;;4.40;99.90;;;;;;4995494;28;20049;-70
2022/03/24 02:21:59;;;;;;;93.85;31.30;;;4.30;99.90;;;;;;5013555;28;20089;-70
2022/03/24 02:24:26;;;;;;;84.25;31.25;;;4.30;99.90;;;;;;5012624;28;20058;-70
2022/03/24 02:26:52;;;;;;;89.85;30.02;;;4.30;99.90;;;;;;4995393;28;20140;-70
2022/03/24 02:29:25;;;;;;;97.68;31.42;;;4.30;99.90;;;;;;5012911;28;20050;-70
2022/03/24 02:31:52;;;;;;;96.13;31.77;;;4.30;99.90;;;;;;5012977;28;20076;-71
2022/03/24 02:37:10;;;;;;;94.53;31.27;;;4.20;99.90;;;;;;5013506;28;20426;-70
2022/03/24 02:39:38;;;;;;;96.88;32.50;;;4.20;99.90;;;;;;5011915;28;20054;-71
2022/03/24 02:42:05;;;;;;;92.90;33.80;;;4.20;99.90;;;;;;4979546;28;20046;-70
2022/03/24 02:44:31;;;;;;;105.28;34.22;;;4.10;99.90;;;;;;5011630;28;20038;-70
2022/03/24 02:47:02;;;;;;;98.68;33.53;;;4.10;99.90;;;;;;5011605;28;20085;-70
2022/03/24 02:49:30;;;;;;;102.60;33.53;;;4.20;99.90;;;;;;4995103;28;20132;-70
2022/03/24 02:51:59;;;;;;;91.00;31.77;;;4.20;99.90;;;;;;5010838;28;20481;-70
2022/03/24 02:54:26;;;;;;;95.45;32.38;;;4.20;99.90;;;;;;5011399;28;20050;-70
2022/03/24 02:56:52;;;;;;;110.55;35.10;;;4.20;99.90;;;;;;5012517;28;20079;-69
2022/03/24 02:59:18;;;;;;;115.22;35.30;;;4.10;99.90;;;;;;5012860;28;20096;-70
2022/03/24 03:01:53;;;;;;;116.97;37.17;;;4.10;99.90;;;;;;5012620;28;20046;-70
2022/03/24 03:04:19;;;;;;;102.22;35.35;;;4.10;99.90;;;;;;5012593;28;20057;-70
2022/03/24 03:06:45;;;;;;;114.68;36.85;;;4.10;99.90;;;;;;5013083;28;20143;-71
2022/03/24 03:09:15;;;;;;;120.22;40.30;;;4.20;99.90;;;;;;5011654;28;20371;-70
2022/03/24 03:11:46;;;;;;;111.43;41.55;;;4.10;99.90;;;;;;5013612;28;20402;-71
2022/03/24 03:14:17;;;;;;;118.00;38.22;;;4.20;99.90;;;;;;5017240;28;20053;-70
2022/03/24 03:16:46;;;;;;;111.85;36.03;;;4.20;99.90;;;;;;5015462;28;20085;-70
2022/03/24 03:19:14;;;;;;;105.07;35.50;;;4.20;99.90;;;;;;5014984;28;20375;-70
2022/03/24 03:21:40;;;;;;;119.72;36.47;;;4.10;99.90;;;;;;4982572;28;20128;-70
2022/03/24 03:24:09;;;;;;;105.20;35.65;;;4.10;99.90;;;;;;4998604;28;20421;-70
2022/03/24 03:26:35;;;;;;;104.63;35.38;;;4.00;99.90;;;;;;5016133;28;20390;-70
2022/03/24 03:29:01;;;;;;;116.35;38.30;;;4.00;99.90;;;;;;5015065;28;20038;-70
2022/03/24 03:31:28;;;;;;;102.97;35.50;;;4.00;99.90;;;;;;4998586;28;20359;-72
2022/03/24 03:33:54;;;;;;;110.80;36.63;;;3.90;99.90;;;;;;5015475;28;20085;-71
2022/03/24 03:36:22;;;;;;;107.13;35.95;;;3.90;99.90;;;;;;5015014;28;20127;-69
2022/03/24 03:38:49;;;;;;;108.03;35.88;;;3.80;99.90;;;;;;5003612;28;20077;-70
2022/03/24 03:41:16;;;;;;;111.00;35.90;;;3.80;99.90;;;;;;5016320;28;20045;-71
2022/03/24 03:43:42;;;;;;;;;;;3.80;99.90;;;;;;5015411;28;20058;-71
2022/03/24 03:46:08;;;;;;;111.30;35.72;;;3.80;99.90;;;;;;5016098;28;19921;-71
2022/03/24 03:48:38;;;;;;;102.13;34.33;;;3.70;99.90;;;;;;5015723;28;20057;-70
2022/03/24 03:51:10;;;;;;;105.90;35.70;;;3.70;99.90;;;;;;4998627;28;20141;-70
2022/03/24 03:53:36;;;;;;;116.57;35.85;;;3.60;99.90;;;;;;5014739;28;20474;-69
2022/03/24 03:56:04;;;;;;;100.60;34.83;;;3.70;99.90;;;;;;4998656;28;20037;-70
2022/03/24 03:58:30;;;;;;;;;;;3.60;99.90;;;;;;5015331;28;20052;-72
2022/03/24 04:00:56;;;;;;;111.57;35.40;;;3.50;99.90;;;;;;5020316;28;20345;-70
2022/03/24 04:03:24;;;;;;;116.22;36.92;;;3.50;99.90;;;;;;5002246;28;20570;-70
2022/03/24 04:05:58;;;;;;;106.53;35.75;;;3.50;99.90;;;;;;5014554;28;20061;-70
2022/03/24 04:08:23;;;;;;;107.30;36.10;;;3.50;99.90;;;;;;5014423;28;20100;-70
2022/03/24 04:10:49;;;;;;;110.40;35.25;;;3.50;99.90;;;;;;5015712;28;20060;-69
2022/03/24 04:13:17;;;;;;;115.82;37.00;;;3.50;99.90;;;;;;4982304;28;20397;-71
2022/03/24 04:15:43;;;;;;;106.80;34.85;;;3.50;99.90;;;;;;5014058;28;20095;-70
2022/03/24 04:18:09;;;;;;;104.20;33.83;;;3.50;99.90;;;;;;4997865;28;20077;-69
2022/03/24 04:20:36;;;;;;;98.30;32.30;;;3.40;99.90;;;;;;4998019;28;20050;-70
2022/03/24 04:23:04;;;;;;;105.80;33.78;;;3.40;99.90;;;;;;4996722;28;20049;-69
2022/03/24 04:25:30;;;;;;;105.00;33.58;;;3.40;99.90;;;;;;5014134;28;20068;-71
2022/03/24 04:27:56;;;;;;;101.45;34.22;;;3.30;99.90;;;;;;5013869;28;20046;-71
2022/03/24 04:30:22;;;;;;;102.38;31.95;;;3.30;99.90;;;;;;5015060;28;20061;-69
2022/03/24 04:32:49;;;;;;;98.38;31.92;;;3.30;99.90;;;;;;4997634;28;20050;-69
2022/03/24 04:35:15;;;;;;;105.60;34.08;;;3.30;99.90;;;;;;5014602;28;20081;-69
2022/03/24 04:37:42;;;;;;;99.18;31.27;;;3.30;99.90;;;;;;4997334;28;20133;-70
2022/03/24 04:40:11;;;;;;;106.70;33.55;;;3.20;99.90;;;;;;5015393;28;20050;-70
2022/03/24 04:42:38;;;;;;;105.78;32.63;;;3.20;99.90;;;;;;5014937;28;20128;-70
2022/03/24 04:45:04;;;;;;;115.15;35.63;;;3.10;99.90;;;;;;4997890;28;20049;-70
2022/03/24 04:47:30;;;;;;;123.57;37.15;;;3.10;99.90;;;;;;5013603;28;20065;-71
2022/03/24 04:49:56;;;;;;;117.60;37.78;;;3.10;99.90;;;;;;4996979;28;20137;-69
2022/03/24 04:52:22;;;;;;;108.53;37.28;;;3.10;99.90;;;;;;4997401;28;20125;-70
2022/03/24 04:54:48;;;;;;;122.47;38.50;;;3.10;99.90;;;;;;5014244;28;20038;-71
2022/03/24 04:57:14;;;;;;;113.88;38.75;;;3.10;99.90;;;;;;4997209;28;20126;-70
2022/03/24 04:59:40;;;;;;;103.57;36.90;;;3.00;99.90;;;;;;5013321;28;20112;-70
2022/03/24 05:02:08;;;;;;;116.53;37.28;;;3.00;99.90;;;;;;4997149;28;20061;-70
2022/03/24 05:04:34;;;;;;;121.80;37.10;;;3.10;99.90;;;;;;5013772;28;20128;-70
2022/03/24 05:07:00;;;;;;;113.65;35.80;;;3.00;99.90;;;;;;4997018;28;20470;-70
2022/03/24 05:09:26;;;;;;;112.45;36.55;;;3.00;99.90;;;;;;5014978;28;20187;-70
2022/03/24 05:11:52;;;;;;;116.82;37.35;;;3.00;99.90;;;;;;4997038;28;20077;-70
2022/03/24 05:14:17;;;;;;;113.68;37.67;;;2.90;99.90;;;;;;5013535;28;20415;-70
2022/03/24 05:16:43;;;;;;;116.93;38.67;;;2.90;99.90;;;;;;5014944;28;20566;-70
2022/03/24 05:19:09;;;;;;;116.13;38.22;;;2.90;99.90;;;;;;5013022;28;20057;-70
2022/03/24 05:21:35;;;;;;;115.18;36.20;;;3.00;99.90;;;;;;5014322;28;20054;-70
2022/03/24 05:24:01;;;;;;;115.57;38.40;;;3.00;99.90;;;;;;4997678;28;20044;-71
2022/03/24 05:26:27;;;;;;;119.10;36.50;;;2.90;99.90;;;;;;5014566;28;20501;-70
2022/03/24 05:28:53;;;;;;;113.00;37.97;;;2.90;99.90;;;;;;5014290;28;20046;-71
2022/03/24 05:31:20;;;;;;;117.47;37.95;;;2.80;99.90;;;;;;4982527;28;20045;-70
2022/03/24 05:33:47;;;;;;;125.45;40.63;;;2.80;99.90;;;;;;5013391;28;20572;-70
2022/03/24 05:36:13;;;;;;;123.10;40.35;;;2.90;99.90;;;;;;4997213;28;20046;-70
2022/03/24 05:38:39;;;;;;;128.68;44.45;;;2.90;99.90;;;;;;4980830;28;20042;-69
2022/03/24 05:41:05;;;;;;;125.95;39.92;;;2.90;99.90;;;;;;4999641;28;20382;-70
2022/03/24 05:43:31;;;;;;;118.53;38.55;;;2.90;99.90;;;;;;5016395;28;20132;-71
2022/03/24 05:45:58;;;;;;;123.10;37.87;;;2.90;99.90;;;;;;5016911;28;20121;-69
2022/03/24 05:48:24;;;;;;;123.70;38.40;;;2.90;99.90;;;;;;5014215;28;20049;-70
2022/03/24 05:50:49;;;;;;;126.60;40.38;;;2.90;99.90;;;;;;5016792;28;20471;-70
2022/03/24 05:53:16;;;;;;;117.93;39.65;;;2.90;99.90;;;;;;5001199;28;20049;-70
2022/03/24 05:55:42;;;;;;;125.57;39.58;;;3.00;99.90;;;;;;5019790;28;20421;-72
2022/03/24 05:58:09;;;;;;;117.65;37.92;;;3.00;99.90;;;;;;5024368;28;20050;-69
2022/03/24 06:00:40;;;;;;;117.97;39.90;;;3.10;99.90;;;;;;5026863;28;20379;-71
2022/03/24 06:03:06;;;;;;;127.13;38.42;;;3.10;99.90;;;;;;5027457;28;20060;-70
2022/03/24 06:05:32;;;;;;;108.00;37.47;;;3.10;99.90;;;;;;5027756;28;20056;-71
2022/03/24 06:08:00;;;;;;;122.53;40.63;;;3.20;99.90;;;;;;5029003;28;20046;-71
2022/03/24 06:10:27;;;;;;;130.55;38.25;;;3.20;99.90;;;;;;5024880;28;20050;-70
2022/03/24 06:12:53;;;;;;;121.50;39.58;;;3.20;99.90;;;;;;5021300;28;20102;-70
2022/03/24 06:15:19;;;;;;;143.43;42.60;;;3.20;99.90;;;;;;5018814;28;20451;-68
2022/03/24 06:17:45;;;;;;;128.68;41.03;;;3.30;99.90;;;;;;4999423;28;20054;-71
2022/03/24 06:20:12;;;;;;;137.95;46.45;;;3.40;99.90;;;;;;4998251;28;20061;-69
2022/03/24 06:22:48;;;;;;;150.55;49.60;;;3.50;99.90;;;;;;5014109;28;20054;-71
2022/03/24 06:25:13;;;;;;;153.85;48.60;;;3.60;99.90;;;;;;5016345;28;20052;-70
2022/03/24 06:27:39;;;;;;;157.23;50.60;;;3.70;99.90;;;;;;5017339;28;20050;-70
2022/03/24 06:30:06;;;;;;;156.88;50.95;;;3.80;99.90;;;;;;5014314;28;20104;-70
2022/03/24 06:32:32;;;;;;;164.77;52.88;;;3.90;99.90;;;;;;5001455;28;20048;-70
2022/03/24 06:34:58;;;;;;;158.70;51.55;;;4.00;99.90;;;;;;5012077;28;20045;-71
2022/03/24 06:37:24;;;;;;;160.70;51.88;;;4.10;99.90;;;;;;5011690;28;20107;-70
2022/03/24 06:39:50;;;;;;;155.63;51.03;;;4.10;99.90;;;;;;5012815;28;20042;-71
2022/03/24 06:42:16;;;;;;;145.63;48.85;;;4.20;99.90;;;;;;5012143;28;20049;-70
2022/03/24 06:44:42;;;;;;;152.48;51.30;;;4.30;99.90;;;;;;4995511;28;20042;-70
2022/03/24 06:47:09;;;;;;;153.02;50.10;;;4.40;99.90;;;;;;5012345;28;20046;-71
2022/03/24 06:49:35;;;;;;;155.98;51.08;;;4.40;99.90;;;;;;4980826;28;20482;-70
2022/03/24 06:52:01;;;;;;;146.93;50.55;;;4.50;99.90;;;;;;5017436;28;20054;-70
2022/03/24 06:54:27;;;;;;;151.55;48.92;;;4.60;99.90;;;;;;5020589;28;20042;-71
2022/03/24 06:56:53;;;;;;;144.95;49.70;;;4.70;99.90;;;;;;5016942;28;20072;-70
2022/03/24 06:59:18;;;;;;;148.18;51.30;;;4.70;99.90;;;;;;5016835;28;20077;-71
2022/03/24 07:01:44;;;;;;;150.02;51.53;;;4.90;99.90;;;;;;5016305;28;20050;-69
2022/03/24 07:04:10;;;;;;;154.13;52.08;;;5.10;99.90;;;;;;5012811;28;20050;-72
2022/03/24 07:06:37;;;;;;;150.93;49.88;;;5.30;99.90;;;;;;5011873;28;20058;-70
2022/03/24 07:09:03;;;;;;;141.82;49.08;;;5.40;99.90;;;;;;4996785;28;20096;-70
2022/03/24 07:11:29;;;;;;;147.40;50.75;;;5.40;99.90;;;;;;5012842;28;20085;-71
2022/03/24 07:13:55;;;;;;;146.05;49.92;;;5.60;99.90;;;;;;5011822;28;20152;-72
2022/03/24 07:16:21;;;;;;;149.13;50.38;;;5.70;99.90;;;;;;5011027;28;20486;-71
2022/03/24 07:18:46;;;;;;;149.45;49.70;;;5.80;99.90;;;;;;4995130;28;20049;-69
2022/03/24 07:21:13;;;;;;;142.65;49.20;;;5.90;99.90;;;;;;5010423;28;20046;-69
2022/03/24 07:23:39;;;;;;;150.40;48.88;;;6.10;99.90;;;;;;4978377;28;20085;-69
2022/03/24 07:26:05;;;;;;;136.15;48.08;;;6.10;99.90;;;;;;4995631;28;20453;-69
2022/03/24 07:28:31;;;;;;;145.82;47.17;;;6.30;99.90;;;;;;5010822;28;20145;-70
2022/03/24 07:30:57;;;;;;;127.25;46.78;;;6.50;99.90;;;;;;4994972;28;20126;-70
2022/03/24 07:33:22;;;;;;;131.85;44.08;;;6.50;99.90;;;;;;5011163;28;20467;-70
2022/03/24 07:35:48;;;;;;;126.72;43.80;;;6.60;99.90;;;;;;5010675;28;20081;-70
2022/03/24 07:38:15;;;;;;;125.28;44.55;;;6.70;99.90;;;;;;5010706;28;20088;-69
2022/03/24 07:40:41;;;;;;;136.10;48.03;;;6.80;99.90;;;;;;5011895;28;20050;-70
2022/03/24 07:43:08;;;;;;;135.18;45.15;;;6.80;99.90;;;;;;4994884;28;20049;-69
2022/03/24 07:45:38;;;;;;;138.00;47.58;;;7.00;99.90;;;;;;5012262;28;20046;-69
2022/03/24 07:48:08;;;;;;;132.27;46.33;;;7.00;99.90;;;;;;5012050;28;20049;-68
2022/03/24 07:50:40;;;;;;;130.27;46.50;;;7.10;99.90;;;;;;5010505;28;20068;-70
2022/03/24 07:53:38;;;;;;;124.30;45.60;;;7.20;99.90;;;;;;5011883;28;20056;-70
2022/03/24 07:56:04;;;;;;;135.18;45.50;;;7.40;99.90;;;;;;5012115;28;20176;-69
2022/03/24 07:58:30;;;;;;;126.88;45.83;;;7.40;99.90;;;;;;4980769;28;20046;-70
2022/03/24 08:00:57;;;;;;;131.48;45.20;;;7.60;99.90;;;;;;4997738;28;20042;-72
2022/03/24 08:03:24;;;;;;;122.30;44.55;;;7.70;99.90;;;;;;4998747;28;20517;-70
2022/03/24 08:05:50;;;;;;;135.40;46.27;;;7.70;99.90;;;;;;4997951;28;20065;-70
2022/03/24 08:08:16;;;;;;;127.95;46.67;;;7.80;99.90;;;;;;4997716;28;20037;-70
2022/03/24 08:10:44;;;;;;;117.63;45.55;;;7.90;99.90;;;;;;5015687;28;20103;-71
2022/03/24 08:13:12;;;;;;;118.22;43.47;;;8.10;99.90;;;;;;4997986;28;20461;-71
2022/03/24 08:15:39;;;;;;;129.40;45.95;;;8.20;99.90;;;;;;5014892;28;20573;-71
2022/03/24 08:18:05;;;;;;;116.97;44.47;;;8.50;99.90;;;;;;5013900;28;20113;-71
2022/03/24 08:20:33;;;;;;;121.70;44.22;;;8.60;99.90;;;;;;5014192;28;20058;-70
2022/03/24 08:22:59;;;;;;;132.32;46.70;;;8.80;99.90;;;;;;4997759;28;20088;-72
2022/03/24 08:25:25;;;;;;;118.60;43.23;;;8.90;99.90;;;;;;5014175;28;20111;-71
2022/03/24 08:27:51;;;;;;;119.35;44.22;;;9.10;99.90;;;;;;4997260;28;20785;-70
2022/03/24 08:30:16;;;;;;;116.63;41.58;;;9.20;99.90;;;;;;4997229;28;20106;-70
2022/03/24 08:32:42;;;;;;;106.25;40.63;;;9.30;99.90;;;;;;5014442;28;20045;-70
2022/03/24 08:35:09;;;;;;;111.15;40.95;;;9.50;99.90;;;;;;5014021;28;20448;-70
2022/03/24 08:37:35;;;;;;;107.57;38.33;;;9.70;99.90;;;;;;5013262;28;20054;-70
2022/03/24 08:40:03;;;;;;;101.18;39.38;;;9.80;99.90;;;;;;4997129;28;20498;-71
2022/03/24 08:42:28;;;;;;;108.20;40.00;;;9.90;99.90;;;;;;5013754;28;20160;-70
2022/03/24 08:44:54;;;;;;;112.35;40.67;;;10.00;99.90;;;;;;4965048;28;20081;-70
2022/03/24 08:47:20;;;;;;;105.70;40.35;;;10.00;99.90;;;;;;5013573;28;20081;-69
2022/03/24 08:49:45;;;;;;;95.25;36.40;;;10.10;99.90;;;;;;4980796;28;20050;-69
2022/03/24 08:52:12;;;;;;;101.68;37.22;;;10.30;99.90;;;;;;5012920;28;20062;-71
2022/03/24 08:54:38;;;;;;;93.43;37.00;;;10.40;99.90;;;;;;5014355;28;20050;-69
2022/03/24 08:57:04;;;;;;;98.30;36.92;;;10.60;99.90;;;;;;4980941;28;20091;-70
2022/03/24 08:59:30;;;;;;;98.63;37.35;;;10.60;99.90;;;;;;5013350;28;20460;-70
2022/03/24 09:01:57;;;;;;;98.40;37.72;;;10.70;99.90;;;;;;5014353;28;20058;-70
2022/03/24 09:04:26;;;;;;;101.78;39.03;;;10.80;99.90;;;;;;5013555;28;20414;-69
2022/03/24 09:06:53;;;;;;;101.93;39.40;;;11.00;99.90;;;;;;5013381;28;20061;-69
2022/03/24 09:09:22;;;;;;;102.32;39.30;;;11.10;99.90;;;;;;5011491;28;20129;-69
2022/03/24 09:11:49;;;;;;;104.50;38.90;;;11.20;99.90;;;;;;4981043;28;20371;-70
2022/03/24 09:14:19;;;;;;;98.28;37.08;;;11.40;99.90;;;;;;5012861;28;20053;-70
2022/03/24 09:16:45;;;;;;;102.07;36.60;;;11.50;99.90;;;;;;5012568;28;20469;-70
2022/03/24 09:19:12;;;;;;;101.97;37.50;;;11.50;99.90;;;;;;5012471;28;20042;-70
2022/03/24 09:21:38;;;;;;;102.38;37.75;;;11.50;99.90;;;;;;5012757;28;20060;-70
2022/03/24 09:24:04;;;;;;;96.70;37.95;;;11.60;99.90;;;;;;5013579;28;20057;-71
2022/03/24 09:26:30;;;;;;;97.88;37.50;;;11.70;99.90;;;;;;5013779;28;20042;-70
2022/03/24 09:28:57;;;;;;;91.50;35.58;;;11.90;99.90;;;;;;4996145;28;20050;-71
2022/03/24 09:31:23;;;;;;;;;;;12.00;99.90;;;;;;5012987;28;20133;-69
2022/03/24 09:33:49;;;;;;;92.00;35.80;;;12.30;99.90;;;;;;4996081;28;19975;-69
2022/03/24 09:36:15;;;;;;;95.15;35.55;;;12.40;99.90;;;;;;5013615;28;20050;-69
2022/03/24 09:38:41;;;;;;;91.10;35.88;;;12.50;98.60;;;;;;5012271;28;20057;-70
2022/03/24 09:41:07;;;;;;;95.88;36.50;;;12.60;97.70;;;;;;5013810;28;20034;-71
2022/03/24 09:43:36;;;;;;;89.18;34.15;;;12.80;96.40;;;;;;4996609;28;20049;-69
2022/03/24 09:46:03;;;;;;;96.00;35.28;;;12.80;97.40;;;;;;5012412;28;20367;-69
2022/03/24 09:48:28;;;;;;;90.33;35.03;;;13.00;97.00;;;;;;5012678;28;20097;-70
2022/03/24 09:50:54;;;;;;;94.57;37.28;;;13.00;97.00;;;;;;5012517;28;20568;-70
2022/03/24 09:53:22;;;;;;;91.18;34.35;;;13.10;95.70;;;;;;5014943;28;20053;-69
2022/03/24 09:55:49;;;;;;;83.55;35.03;;;13.20;96.30;;;;;;4999692;28;20042;-70
2022/03/24 09:58:15;;;;;;;81.82;34.33;;;13.20;97.60;;;;;;5016600;28;20052;-71
2022/03/24 10:00:41;;;;;;;95.60;34.05;;;13.20;97.80;;;;;;5013341;28;20042;-70
2022/03/24 10:03:15;;;;;;;85.22;34.25;;;13.30;98.00;;;;;;5013322;28;20140;-69
2022/03/24 10:05:53;;;;;;;86.95;34.17;;;13.40;95.10;;;;;;5013646;28;20080;-69
2022/03/24 10:08:19;;;;;;;93.22;32.70;;;13.60;93.00;;;;;;5012205;28;20052;-70
2022/03/24 10:10:44;;;;;;;88.03;34.65;;;13.70;92.30;;;;;;5012357;28;20385;-69
2022/03/24 10:13:10;;;;;;;89.50;33.17;;;13.80;92.80;;;;;;5012072;28;20046;-71
2022/03/24 10:15:38;;;;;;;84.18;34.90;;;13.90;91.70;;;;;;5012773;28;20076;-69
2022/03/24 10:18:04;;;;;;;86.55;33.75;;;14.10;90.30;;;;;;4995792;28;20050;-70
2022/03/24 10:20:30;;;;;;;83.50;33.72;;;14.10;90.30;;;;;;4995806;28;20402;-69
2022/03/24 10:23:05;;;;;;;83.18;31.30;;;14.10;91.50;;;;;;5012661;28;20054;-69
2022/03/24 10:25:33;;;;;;;79.18;31.50;;;14.10;91.10;;;;;;5013432;28;20439;-69
2022/03/24 10:28:08;;;;;;;66.68;29.42;;;14.20;86.80;;;;;;4995437;28;20049;-69
2022/03/24 10:31:02;;;;;;;76.63;29.45;;;14.20;90.20;;;;;;5012664;28;20129;-69
2022/03/24 10:33:28;;;;;;;68.10;27.77;;;14.30;89.20;;;;;;5011593;28;20431;-69
2022/03/24 10:36:16;;;;;;;74.68;28.65;;;14.30;88.10;;;;;;5012936;28;20092;-70
2022/03/24 10:38:45;;;;;;;72.72;29.98;;;14.40;84.70;;;;;;4995830;28;20084;-70
2022/03/24 10:41:22;;;;;;;69.65;26.77;;;14.50;82.50;;;;;;5013052;28;20126;-70
2022/03/24 10:43:51;;;;;;;75.80;28.67;;;14.50;84.20;;;;;;4995407;28;20478;-70
2022/03/24 10:46:23;;;;;;;74.70;28.02;;;14.60;82.60;;;;;;4979443;28;20049;-70
2022/03/24 10:48:51;;;;;;;73.90;28.85;;;14.60;83.60;;;;;;5012389;28;20494;-69
2022/03/24 10:51:27;;;;;;;71.65;27.95;;;14.70;81.10;;;;;;5011312;28;20486;-69
2022/03/24 10:54:25;;;;;;;71.93;27.67;;;14.70;81.50;;;;;;5012915;28;20054;-69
2022/03/24 10:57:14;;;;;;;69.25;28.20;;;14.80;80.40;;;;;;5012529;28;20050;-69
2022/03/24 10:59:48;;;;;;;71.40;28.58;;;15.10;66.10;;;;;;5013211;28;20092;-69
2022/03/24 11:02:15;;;;;;;74.25;28.95;;;15.30;67.70;;;;;;4978846;28;20136;-70
2022/03/24 11:04:43;;;;;;;65.95;27.23;;;15.30;65.70;;;;;;5011905;28;20129;-69
2022/03/24 11:07:09;;;;;;;66.50;27.05;;;15.50;56.20;;;;;;5011310;28;20124;-72
2022/03/24 11:09:35;;;;;;;60.28;27.05;;;15.50;59.50;;;;;;5011245;28;20121;-70
2022/03/24 11:12:26;;;;;;;65.80;27.17;;;15.70;58.70;;;;;;5013024;28;20050;-69
2022/03/24 11:14:57;;;;;;;67.95;26.92;;;15.80;59.00;;;;;;5011395;28;20045;-69
2022/03/24 11:17:31;;;;;;;64.45;28.45;;;15.80;59.80;;;;;;5011099;28;20081;-69
2022/03/24 11:20:20;;;;;;;65.28;26.30;;;15.80;57.80;;;;;;4995891;28;20120;-70
2022/03/24 11:22:51;;;;;;;60.22;25.60;;;15.90;60.70;;;;;;5011354;28;20054;-71
2022/03/24 11:25:18;;;;;;;52.65;23.63;;;15.90;61.30;;;;;;5012979;28;20410;-71
2022/03/24 11:27:45;;;;;;;52.17;23.27;;;15.90;56.40;;;;;;5012468;28;20042;-71
2022/03/24 11:30:12;;;;;;;57.25;22.55;;;15.90;60.40;;;;;;5012172;28;20486;-70
2022/03/24 11:32:42;;;;;;;53.40;23.55;;;15.90;53.80;;;;;;5013291;28;20195;-69
2022/03/24 11:35:09;;;;;;;48.58;22.38;;;15.90;56.40;;;;;;5016540;28;20073;-70
2022/03/24 11:37:35;;;;;;;51.65;21.95;;;15.80;50.60;;;;;;5015543;28;20049;-70
2022/03/24 11:40:11;;;;;;;53.42;24.00;;;15.90;54.30;;;;;;4982847;28;20057;-69
2022/03/24 11:43:03;;;;;;;54.33;26.27;;;16.10;53.10;;;;;;5014848;28;20117;-69
2022/03/24 11:45:35;;;;;;;51.70;23.30;;;16.30;49.30;;;;;;5012617;28;20281;-69
2022/03/24 11:48:05;;;;;;;53.80;22.98;;;16.20;50.00;;;;;;5015463;28;20363;-70
2022/03/24 11:50:50;;;;;;;51.10;24.10;;;16.30;46.80;;;;;;5014374;28;20137;-70
2022/03/24 11:53:23;;;;;;;51.80;22.45;;;16.20;49.70;;;;;;5014463;28;20485;-70
2022/03/24 11:56:04;;;;;;;49.95;21.35;;;16.20;50.80;;;;;;5015496;28;20046;-70
2022/03/24 11:58:45;;;;;;;49.42;20.17;;;16.20;52.00;;;;;;4998099;28;20486;-69
2022/03/24 12:01:20;;;;;;;45.03;19.67;;;16.20;53.10;;;;;;5015596;28;20128;-68
2022/03/24 12:03:56;;;;;;;42.15;17.30;;;16.30;50.00;;;;;;5014434;28;20084;-69
2022/03/24 12:06:41;;;;;;;50.13;19.27;;;16.40;51.00;;;;;;5015533;28;20084;-69
2022/03/24 12:09:09;;;;;;;50.42;22.38;;;16.40;53.50;;;;;;5015891;28;20366;-69
2022/03/24 12:11:40;;;;;;;48.83;20.85;;;16.40;48.20;;;;;;5015352;28;20085;-69
2022/03/24 12:14:16;;;;;;;52.42;22.25;;;16.40;51.90;;;;;;5014717;28;20429;-70
2022/03/24 12:16:53;;;;;;;50.40;22.00;;;16.50;49.20;;;;;;5014273;28;20096;-70
2022/03/24 12:19:38;;;;;;;47.85;22.30;;;16.50;48.40;;;;;;5016048;28;20042;-70
2022/03/24 12:22:25;;;;;;;45.92;17.73;;;16.60;49.10;;;;;;5013901;28;20184;-69
2022/03/24 12:25:00;;;;;;;47.95;20.52;;;16.60;50.00;;;;;;4997716;28;20078;-70
2022/03/24 12:27:54;;;;;;;50.72;19.98;;;16.60;48.60;;;;;;5014423;28;20060;-70
2022/03/24 12:30:20;;;;;;;49.22;18.85;;;16.60;47.90;;;;;;5014139;28;20099;-71
2022/03/24 12:33:07;;;;;;;42.25;19.15;;;16.50;48.80;;;;;;5016014;28;20205;-70
2022/03/24 12:35:42;;;;;;;48.45;19.25;;;16.60;48.90;;;;;;5015409;28;20060;-69
2022/03/24 12:38:32;;;;;;;45.78;20.02;;;16.50;48.10;;;;;;5013827;28;20038;-70
2022/03/24 12:41:07;;;;;;;50.40;19.80;;;16.60;51.10;;;;;;5013888;28;20064;-70